Terminal Aerodrome Forecast
Issued by NWS Wilmington, OH

Current Version | Previous Version | Text Only | Print | Product List | Glossary Off
Versions: 1 2 3 4 5 6 7 8 9 10 11 12 13 14 15 16 17 18 19 20 21 22 23 24

000
FTUS41 KILN 140045 AAA
TAFDAY
TAF AMD
KDAY 140045Z 1401/1424 21010KT P6SM VCSH BKN040 OVC050
     FM140200 25022G36KT P6SM -DZ OVC025
     FM140600 29018G29KT P6SM OVC025
     FM140900 32012KT P6SM BKN015
     FM141600 34008KT P6SM SCT025
     FM142300 VRB03KT P6SM BKN250=

USA.gov is the U.S. government's official web portal to all federal, state and local government web resources and services.